Time;durP1;ratioP1;P1;durP2;ratioP2;P2;SDS_P1;SDS_P2;PMS_P1;PMS_P2;Temp;Humidity;BMP_temperature;BMP_pressure;BME280_temperature;BME280_humidity;BME280_pressure;Samples;Min_cycle;Max_cycle;Signal;HPM_P1;HPM_P2
2021/11/22 00:00:20;;;;;;;33.87;17.87;;;;;;;7.35;67.57;96345.97;4982178;28;20188;-68
2021/11/22 00:02:47;;;;;;;30.17;18.20;;;;;;;7.12;67.88;96346.47;4991833;28;20570;-69
2021/11/22 00:05:13;;;;;;;22.37;15.67;;;;;;;7.04;68.46;96352.44;4995400;28;20428;-68
2021/11/22 00:07:38;;;;;;;23.83;16.23;;;;;;;7.24;67.64;96354.88;4994628;28;20415;-68
2021/11/22 00:10:05;;;;;;;27.27;17.30;;;;;;;7.32;67.18;96360.16;4974418;28;20177;-70
2021/11/22 00:12:33;;;;;;;25.60;16.83;;;;;;;7.26;68.03;96370.34;4992375;28;20240;-70
2021/11/22 00:14:58;;;;;;;26.83;16.10;;;;;;;7.33;67.72;96366.16;4992023;28;20408;-68
2021/11/22 00:17:24;;;;;;;26.30;17.50;;;;;;;7.39;66.87;96370.78;4995561;28;20958;-68
2021/11/22 00:19:49;;;;;;;24.80;15.50;;;;;;;7.23;68.17;96361.88;4995676;28;20268;-68
2021/11/22 00:22:15;;;;;;;24.93;15.80;;;;;;;7.40;67.39;96364.59;4996697;28;20204;-67
2021/11/22 00:24:41;;;;;;;25.70;16.00;;;;;;;7.55;67.24;96357.03;4995171;28;20267;-69
2021/11/22 00:27:07;;;;;;;25.00;16.13;;;;;;;7.62;66.67;96365.06;4994564;28;20184;-69
2021/11/22 00:29:32;;;;;;;26.13;16.90;;;;;;;7.39;66.66;96355.13;4995435;28;20424;-68
2021/11/22 00:32:01;;;;;;;24.13;16.27;;;;;;;7.51;67.41;96356.53;4995278;28;20216;-69
2021/11/22 00:34:26;;;;;;;31.77;16.97;;;;;;;7.59;66.77;96370.56;4977410;28;20274;-69
2021/11/22 00:36:52;;;;;;;28.23;17.00;;;;;;;7.35;67.35;96374.66;4977740;28;20869;-68
2021/11/22 00:39:17;;;;;;;23.93;16.37;;;;;;;7.45;67.00;96380.59;4995233;28;20187;-69
2021/11/22 00:41:43;;;;;;;26.20;17.13;;;;;;;7.08;67.94;96371.19;4995677;28;20224;-69
2021/11/22 00:44:10;;;;;;;28.50;16.23;;;;;;;7.46;67.44;96377.00;5003684;28;20609;-67
2021/11/22 00:46:35;;;;;;;27.47;17.83;;;;;;;7.43;67.37;96374.72;4994518;28;20435;-69
2021/11/22 00:49:01;;;;;;;30.90;17.07;;;;;;;7.63;67.21;96382.34;4995158;28;20185;-70
2021/11/22 00:51:27;;;;;;;32.37;17.77;;;;;;;7.57;67.26;96385.53;4979274;28;20215;-69
2021/11/22 00:53:53;;;;;;;28.73;15.90;;;;;;;7.69;67.24;96386.91;4995245;28;20348;-68
2021/11/22 00:56:19;;;;;;;26.90;15.97;;;;;;;7.73;66.73;96383.03;4994710;28;20238;-68
2021/11/22 00:58:45;;;;;;;26.03;16.10;;;;;;;7.78;66.41;96393.00;4994725;28;20428;-68
2021/11/22 01:01:11;;;;;;;28.73;17.17;;;;;;;7.72;65.95;96394.44;4995278;28;20447;-69
2021/11/22 01:03:36;;;;;;;30.37;16.50;;;;;;;7.56;67.10;96402.19;4994489;28;20676;-67
2021/11/22 01:06:02;;;;;;;27.20;17.23;;;;;;;7.56;66.68;96399.59;4994248;28;20439;-68
2021/11/22 01:08:28;;;;;;;28.00;17.33;;;;;;;7.58;67.21;96400.22;4994041;28;20191;-68
2021/11/22 01:10:53;;;;;;;25.47;16.37;;;;;;;7.73;66.52;96403.09;4994138;28;20291;-67
2021/11/22 01:13:19;;;;;;;28.63;17.50;;;;;;;7.32;66.62;96401.84;4976404;28;20201;-67
2021/11/22 01:15:45;;;;;;;28.00;17.60;;;;;;;6.95;68.29;96415.88;4994406;28;20188;-68
2021/11/22 01:18:10;;;;;;;27.23;16.83;;;;;;;7.13;68.34;96405.44;4994372;28;20585;-68
2021/11/22 01:20:36;;;;;;;26.67;17.00;;;;;;;7.08;68.83;96410.28;4993852;28;20244;-68
2021/11/22 01:23:05;;;;;;;27.10;17.20;;;;;;;7.29;68.57;96414.38;4978498;28;20208;-67
2021/11/22 01:25:31;;;;;;;28.23;17.20;;;;;;;7.24;67.87;96420.03;4994005;28;20196;-68
2021/11/22 01:27:56;;;;;;;29.97;18.13;;;;;;;7.21;68.36;96423.75;4985936;28;20825;-69
2021/11/22 01:30:23;;;;;;;30.33;18.20;;;;;;;7.02;68.80;96419.50;4994512;28;20641;-68
2021/11/22 01:32:49;;;;;;;36.57;18.20;;;;;;;7.20;68.61;96422.09;4994500;28;20197;-68
2021/11/22 01:35:15;;;;;;;30.07;18.57;;;;;;;7.30;68.09;96416.00;4968564;28;20596;-68
2021/11/22 01:37:41;;;;;;;30.17;18.80;;;;;;;7.50;67.78;96420.06;4994614;28;20867;-68
2021/11/22 01:40:08;;;;;;;32.40;18.80;;;;;;;7.51;67.55;96419.09;4984441;28;20431;-68
2021/11/22 01:42:33;;;;;;;38.63;19.80;;;;;;;7.06;69.06;96412.22;4994100;28;20464;-69
2021/11/22 01:44:59;;;;;;;32.67;17.67;;;;;;;7.29;68.33;96409.97;4994517;28;20463;-68
2021/11/22 01:47:25;;;;;;;27.13;18.40;;;;;;;6.58;69.71;96404.59;4993973;28;20656;-69
2021/11/22 01:49:50;;;;;;;30.53;17.53;;;;;;;6.54;70.33;96407.66;4976490;28;20528;-68
2021/11/22 01:52:16;;;;;;;32.73;18.47;;;;;;;6.38;71.37;96409.09;4994288;28;20309;-69
2021/11/22 01:54:42;;;;;;;29.87;18.80;;;;;;;6.75;70.68;96415.19;4994352;28;20550;-68
2021/11/22 01:57:07;;;;;;;30.80;18.17;;;;;;;7.05;69.87;96415.81;4977166;28;20704;-69
2021/11/22 01:59:34;;;;;;;32.07;18.50;;;;;;;7.23;68.99;96416.59;4994391;28;20424;-68
2021/11/22 02:02:02;;;;;;;29.50;18.40;;;;;;;7.18;69.29;96418.03;4993845;28;20205;-69
2021/11/22 02:04:28;;;;;;;33.40;19.90;;;;;;;6.61;70.34;96419.94;4993473;28;20416;-68
2021/11/22 02:06:54;;;;;;;35.20;19.60;;;;;;;6.73;70.61;96419.72;4981409;28;20554;-68
2021/11/22 02:09:19;;;;;;;32.23;20.63;;;;;;;6.47;71.73;96410.00;4996467;28;20428;-68
2021/11/22 02:11:45;;;;;;;32.57;19.93;;;;;;;6.49;71.90;96425.50;5001426;28;20594;-69
2021/11/22 02:14:11;;;;;;;27.97;16.87;;;;;;;6.17;72.48;96419.78;4993708;28;20181;-69
2021/11/22 02:16:36;;;;;;;32.93;20.10;;;;;;;6.60;72.08;96428.72;4992592;28;20235;-68
2021/11/22 02:19:03;;;;;;;36.87;20.50;;;;;;;6.84;71.14;96422.13;4993340;28;20678;-68
2021/11/22 02:21:29;;;;;;;39.03;20.40;;;;;;;6.27;72.45;96428.34;4984347;28;20675;-68
2021/11/22 02:23:55;;;;;;;41.83;20.73;;;;;;;6.59;71.68;96423.66;4993366;28;20428;-68
2021/11/22 02:26:20;;;;;;;37.10;20.83;;;;;;;6.57;71.65;96431.59;4993190;28;20432;-68
2021/11/22 02:28:46;;;;;;;39.33;21.60;;;;;;;6.30;72.57;96441.06;4992788;28;20272;-69
2021/11/22 02:31:12;;;;;;;43.60;22.90;;;;;;;6.54;72.43;96434.50;4975119;28;20574;-68
2021/11/22 02:33:38;;;;;;;41.93;21.00;;;;;;;6.36;72.79;96446.66;4992662;28;20619;-69
2021/11/22 02:36:03;;;;;;;41.00;21.10;;;;;;;6.55;72.21;96436.13;4993264;28;20428;-68
2021/11/22 02:38:31;;;;;;;42.60;22.70;;;;;;;6.65;71.81;96440.47;4991685;28;20188;-68
2021/11/22 02:40:58;;;;;;;40.57;22.00;;;;;;;6.08;73.27;96449.22;4992919;28;20181;-68
2021/11/22 02:43:25;;;;;;;40.80;20.90;;;;;;;6.23;73.78;96441.78;4992885;28;20819;-67
2021/11/22 02:45:51;;;;;;;36.30;19.47;;;;;;;6.79;72.46;96445.19;4992913;28;20983;-69
2021/11/22 02:48:16;;;;;;;46.20;22.33;;;;;;;6.89;72.19;96442.50;4966544;28;20503;-67
2021/11/22 02:50:42;;;;;;;41.77;22.30;;;;;;;6.97;71.17;96444.38;4992216;28;20216;-68
2021/11/22 02:53:08;;;;;;;40.50;21.63;;;;;;;6.61;72.19;96453.78;4992540;28;20201;-66
2021/11/22 02:55:33;;;;;;;39.17;21.67;;;;;;;6.74;71.79;96450.81;5000919;28;20192;-69
2021/11/22 02:57:59;;;;;;;36.20;19.80;;;;;;;6.29;73.31;96451.63;4998539;28;20635;-68
2021/11/22 03:00:29;;;;;;;37.80;19.30;;;;;;;6.83;72.25;96454.31;4992080;28;20601;-68
2021/11/22 03:02:55;;;;;;;38.03;19.70;;;;;;;6.87;72.04;96454.84;4991532;28;20248;-66
2021/11/22 03:05:21;;;;;;;45.70;23.03;;;;;;;6.49;72.67;96467.97;4992380;28;20467;-66
2021/11/22 03:07:47;;;;;;;41.00;20.77;;;;;;;6.56;72.87;96463.00;4992262;28;20683;-70
2021/11/22 03:10:14;;;;;;;47.00;22.13;;;;;;;6.39;73.65;96462.00;4992163;28;20440;-69
2021/11/22 03:12:41;;;;;;;46.27;21.73;;;;;;;6.63;73.04;96465.84;4982811;28;20579;-69
2021/11/22 03:15:10;;;;;;;40.40;21.50;;;;;;;6.27;73.70;96458.75;4991601;28;20460;-69
2021/11/22 03:17:36;;;;;;;41.00;21.67;;;;;;;6.72;73.11;96460.59;4991535;28;20457;-69
2021/11/22 03:20:03;;;;;;;42.83;20.20;;;;;;;6.46;73.83;96468.25;4991801;28;20436;-67
2021/11/22 03:22:29;;;;;;;39.37;19.93;;;;;;;6.67;73.16;96459.38;4980577;28;21197;-69
2021/11/22 03:24:54;;;;;;;40.50;21.40;;;;;;;6.88;71.72;96467.75;4992082;28;20437;-69
2021/11/22 03:27:20;;;;;;;32.50;19.73;;;;;;;7.14;71.59;96471.41;4991696;28;20614;-69
2021/11/22 03:29:46;;;;;;;40.40;21.07;;;;;;;6.99;71.41;96469.34;4991331;28;20568;-69
2021/11/22 03:32:11;;;;;;;34.27;19.20;;;;;;;6.83;71.76;96469.97;4991342;28;20205;-69
2021/11/22 03:34:37;;;;;;;34.63;18.53;;;;;;;7.08;71.79;96475.41;4991858;28;20189;-69
2021/11/22 03:37:04;;;;;;;34.30;18.40;;;;;;;7.18;71.14;96477.97;4958207;28;20189;-69
2021/11/22 03:39:31;;;;;;;33.83;19.20;;;;;;;7.37;70.73;96477.00;4991446;28;20695;-68
2021/11/22 03:41:59;;;;;;;31.73;19.53;;;;;;;7.51;70.56;96473.84;4991488;28;20950;-69
2021/11/22 03:44:25;;;;;;;40.57;20.07;;;;;;;7.44;70.28;96478.00;4991216;28;20845;-69
2021/11/22 03:46:52;;;;;;;32.57;19.10;;;;;;;7.31;70.67;96483.63;4991354;28;20432;-68
2021/11/22 03:49:18;;;;;;;33.40;19.20;;;;;;;6.69;71.48;96496.50;4991239;28;20185;-68
2021/11/22 03:51:44;;;;;;;39.67;19.00;;;;;;;6.51;73.17;96497.28;4995649;28;20522;-69
2021/11/22 03:54:10;;;;;;;37.13;18.80;;;;;;;6.90;72.11;96497.06;4995730;28;20709;-68
2021/11/22 03:56:37;;;;;;;36.33;20.60;;;;;;;6.76;72.42;96498.38;4995219;28;20651;-67
2021/11/22 03:59:03;;;;;;;37.03;19.70;;;;;;;6.87;72.41;96486.09;4994818;28;20728;-67
2021/11/22 04:01:29;;;;;;;34.33;18.33;;;;;;;6.48;73.22;96492.34;4985695;28;20427;-67
2021/11/22 04:03:54;;;;;;;37.53;21.30;;;;;;;5.63;76.41;96498.31;4995101;28;20825;-66
2021/11/22 04:06:20;;;;;;;35.77;19.77;;;;;;;5.99;76.15;96505.50;4995024;28;20185;-67
2021/11/22 04:08:45;;;;;;;32.27;19.40;;;;;;;6.20;75.11;96500.13;4994825;28;20189;-66
2021/11/22 04:11:11;;;;;;;32.03;19.20;;;;;;;6.06;75.60;96501.41;4994638;28;20232;-68
2021/11/22 04:13:37;;;;;;;44.57;19.47;;;;;;;6.14;75.97;96511.91;4994567;28;20581;-67
2021/11/22 04:16:03;;;;;;;40.93;19.50;;;;;;;6.28;74.86;96497.66;4995464;28;20428;-66
2021/11/22 04:18:29;;;;;;;33.93;19.93;;;;;;;6.39;74.74;96501.84;5004593;28;20272;-67
2021/11/22 04:20:55;;;;;;;30.63;17.60;;;;;;;6.78;73.37;96513.03;5002498;28;20879;-69
2021/11/22 04:23:22;;;;;;;34.70;18.30;;;;;;;6.90;73.10;96514.47;5004993;28;20530;-68
2021/11/22 04:25:48;;;;;;;27.60;16.40;;;;;;;6.96;72.87;96505.25;5008456;28;20439;-68
2021/11/22 04:28:14;;;;;;;33.13;19.70;;;;;;;6.83;72.82;96522.06;5004075;28;20942;-66
2021/11/22 04:30:41;;;;;;;38.57;19.10;;;;;;;7.12;71.84;96515.84;4995131;28;20201;-67
2021/11/22 04:33:07;;;;;;;29.57;18.03;;;;;;;6.51;73.67;96527.69;4995953;28;20501;-67
2021/11/22 04:35:33;;;;;;;27.37;16.30;;;;;;;6.61;73.53;96533.69;4978203;28;20451;-68
2021/11/22 04:37:59;;;;;;;29.97;17.63;;;;;;;6.41;74.17;96532.94;4998678;28;20428;-69
2021/11/22 04:40:24;;;;;;;30.10;17.80;;;;;;;6.85;73.22;96540.16;5010535;28;20192;-67
2021/11/22 04:42:50;;;;;;;44.33;22.87;;;;;;;6.69;73.63;96536.38;5002072;28;20237;-68
2021/11/22 04:45:17;;;;;;;33.03;17.90;;;;;;;6.71;73.33;96539.69;5010647;28;20193;-66
2021/11/22 04:47:43;;;;;;;31.90;18.27;;;;;;;6.19;75.07;96555.72;4997367;28;20184;-67
2021/11/22 04:50:09;;;;;;;33.30;19.30;;;;;;;6.30;76.00;96549.53;5009725;28;20423;-68
2021/11/22 04:52:35;;;;;;;50.57;22.70;;;;;;;6.42;75.32;96550.22;5004304;28;20304;-67
2021/11/22 04:55:02;;;;;;;32.60;19.20;;;;;;;6.44;74.73;96562.09;4995313;28;20472;-67
2021/11/22 04:57:27;;;;;;;33.00;18.20;;;;;;;6.65;73.86;96560.25;4989174;28;20451;-67
2021/11/22 04:59:53;;;;;;;33.20;18.20;;;;;;;6.29;75.04;96561.75;4992764;28;20510;-68
2021/11/22 05:02:19;;;;;;;32.97;18.70;;;;;;;6.35;74.97;96562.97;4983722;28;20807;-67
2021/11/22 05:04:44;;;;;;;34.67;16.63;;;;;;;6.36;76.20;96567.22;4994187;28;20212;-67
2021/11/22 05:07:10;;;;;;;33.03;17.27;;;;;;;6.58;74.68;96568.63;4976398;28;20200;-68
2021/11/22 05:09:35;;;;;;;30.93;17.93;;;;;;;6.65;74.03;96562.88;4976387;28;20351;-67
2021/11/22 05:12:01;;;;;;;35.93;18.03;;;;;;;6.55;74.18;96566.31;4984453;28;20209;-67
2021/11/22 05:14:27;;;;;;;32.70;17.83;;;;;;;6.64;74.21;96574.25;4993796;28;20205;-67
2021/11/22 05:16:53;;;;;;;31.23;17.70;;;;;;;6.27;75.28;96568.88;4977762;28;20193;-67
2021/11/22 05:19:19;;;;;;;28.27;15.93;;;;;;;6.19;75.74;96573.94;4993263;28;20213;-67
2021/11/22 05:21:45;;;;;;;29.50;16.97;;;;;;;5.99;76.62;96576.59;4995363;28;20915;-69
2021/11/22 05:24:10;;;;;;;29.57;18.13;;;;;;;6.21;75.76;96577.22;5000034;28;20523;-68
2021/11/22 05:26:37;;;;;;;26.93;16.70;;;;;;;6.15;76.61;96583.00;4993606;28;20436;-66
2021/11/22 05:29:05;;;;;;;29.70;15.57;;;;;;;6.19;76.32;96588.75;4995260;28;20352;-67
2021/11/22 05:31:31;;;;;;;30.73;17.30;;;;;;;6.40;75.48;96578.97;4993722;28;20463;-68
2021/11/22 05:33:57;;;;;;;30.70;16.07;;;;;;;6.14;76.62;96583.97;4993341;28;20523;-66
2021/11/22 05:36:23;;;;;;;28.60;16.10;;;;;;;6.22;75.71;96591.06;4993174;28;20516;-67
2021/11/22 05:38:49;;;;;;;30.80;15.73;;;;;;;6.54;75.13;96592.50;4993439;28;20181;-68
2021/11/22 05:41:14;;;;;;;44.90;18.60;;;;;;;6.80;74.22;96594.47;4994328;28;20276;-67
2021/11/22 05:43:40;;;;;;;34.73;16.80;;;;;;;6.95;73.52;96595.63;4993456;28;20455;-67
2021/11/22 05:46:08;;;;;;;29.83;16.00;;;;;;;7.04;72.94;96593.94;5000502;28;20234;-65
2021/11/22 05:48:34;;;;;;;28.53;15.90;;;;;;;6.69;73.82;96598.06;4993902;28;20654;-66
2021/11/22 05:51:00;;;;;;;25.17;14.40;;;;;;;6.41;75.38;96600.63;4975866;28;20579;-67
2021/11/22 05:53:32;;;;;;;24.90;14.27;;;;;;;6.74;74.15;96606.28;4967597;28;20197;-66
2021/11/22 05:56:02;;;;;;;29.20;14.20;;;;;;;6.66;74.28;96606.16;4994066;28;20416;-66
2021/11/22 05:58:30;;;;;;;25.60;14.63;;;;;;;6.80;74.23;96610.94;4996726;28;20447;-65
2021/11/22 06:00:57;;;;;;;27.23;14.13;;;;;;;6.79;73.69;96616.25;4998865;28;20972;-66
2021/11/22 06:03:23;;;;;;;24.57;14.47;;;;;;;7.22;72.68;96610.44;5008433;28;20473;-66
2021/11/22 06:05:48;;;;;;;24.50;14.23;;;;;;;7.18;72.78;96618.69;4993298;28;20425;-67
2021/11/22 06:08:15;;;;;;;22.03;14.10;;;;;;;7.06;72.59;96616.28;4993357;28;20181;-68
2021/11/22 06:10:41;;;;;;;22.93;14.80;;;;;;;6.68;74.16;96625.09;4992570;28;20554;-66
2021/11/22 06:13:10;;;;;;;28.60;14.50;;;;;;;6.24;75.71;96621.19;4975248;28;20444;-68
2021/11/22 06:15:36;;;;;;;24.90;14.17;;;;;;;6.18;75.96;96632.16;4992157;28;20185;-66
2021/11/22 06:18:02;;;;;;;21.60;13.60;;;;;;;6.61;74.71;96638.66;4992613;28;20420;-66
2021/11/22 06:20:27;;;;;;;26.33;14.13;;;;;;;6.53;75.12;96635.94;4994633;28;20178;-68
2021/11/22 06:22:53;;;;;;;23.20;13.43;;;;;;;6.33;75.18;96639.53;4982647;28;20219;-67
2021/11/22 06:25:18;;;;;;;24.63;13.70;;;;;;;6.51;74.41;96637.88;5004599;28;20271;-66
2021/11/22 06:27:44;;;;;;;24.30;13.90;;;;;;;6.54;75.25;96650.59;4997736;28;20185;-67
2021/11/22 06:30:10;;;;;;;22.70;13.00;;;;;;;6.24;75.88;96649.81;4996068;28;20182;-68
2021/11/22 06:32:36;;;;;;;23.70;13.73;;;;;;;6.06;75.97;96649.69;4995577;28;20533;-66
2021/11/22 06:35:03;;;;;;;26.73;13.90;;;;;;;6.58;75.66;96658.94;4992584;28;20428;-67
2021/11/22 06:37:31;;;;;;;26.50;14.10;;;;;;;6.85;74.55;96659.97;4976583;28;20196;-67
2021/11/22 06:39:56;;;;;;;27.30;15.30;;;;;;;6.78;74.17;96659.72;4998016;28;21000;-67
2021/11/22 06:42:23;;;;;;;31.50;15.97;;;;;;;6.64;75.35;96662.78;4992685;28;20441;-66
2021/11/22 06:44:49;;;;;;;29.57;16.13;;;;;;;6.55;74.85;96662.63;4992315;28;20188;-66
2021/11/22 06:47:15;;;;;;;47.27;18.60;;;;;;;6.70;74.68;96668.25;4992290;28;20432;-66
2021/11/22 06:49:41;;;;;;;30.27;15.97;;;;;;;6.39;75.49;96665.00;4992154;28;20416;-66
2021/11/22 06:52:07;;;;;;;35.77;16.77;;;;;;;7.01;74.23;96675.00;4992391;28;20827;-67
2021/11/22 06:54:33;;;;;;;22.90;13.90;;;;;;;6.71;74.32;96682.06;4993470;28;20690;-66
2021/11/22 06:57:00;;;;;;;30.53;14.77;;;;;;;7.13;73.10;96684.28;4992433;28;20413;-68
2021/11/22 06:59:28;;;;;;;22.63;13.43;;;;;;;6.75;74.08;96683.44;4991455;28;20270;-66
2021/11/22 07:01:54;;;;;;;23.70;13.67;;;;;;;6.45;74.99;96691.31;4998505;28;20460;-67
2021/11/22 07:04:20;;;;;;;21.60;12.37;;;;;;;6.29;76.09;96699.69;4992779;28;20511;-67
2021/11/22 07:06:46;;;;;;;21.53;13.23;;;;;;;6.37;75.92;96700.78;4998617;28;20188;-67
2021/11/22 07:09:12;;;;;;;20.97;11.97;;;;;;;6.50;75.88;96696.09;4972558;28;20196;-67
2021/11/22 07:11:37;;;;;;;20.50;12.33;;;;;;;6.24;75.97;96704.47;4978895;28;20467;-67
2021/11/22 07:14:04;;;;;;;21.67;12.90;;;;;;;6.56;75.32;96703.34;5003543;28;20191;-65
2021/11/22 07:16:30;;;;;;;20.10;11.63;;;;;;;6.61;75.37;96710.75;5011303;28;20185;-66
2021/11/22 07:18:55;;;;;;;23.33;12.37;;;;;;;6.78;75.01;96717.03;5013694;28;20474;-67
2021/11/22 07:21:21;;;;;;;21.23;11.93;;;;;;;6.38;75.27;96710.22;5000018;28;20803;-66
2021/11/22 07:23:47;;;;;;;21.93;12.97;;;;;;;6.30;76.19;96719.53;5007911;28;20200;-67
2021/11/22 07:26:13;;;;;;;20.57;12.37;;;;;;;6.21;76.51;96717.75;5008058;28;20428;-67
2021/11/22 07:28:38;;;;;;;19.40;12.27;;;;;;;6.61;75.65;96721.97;5003566;28;20192;-66
2021/11/22 07:31:04;;;;;;;23.23;12.73;;;;;;;6.33;75.86;96730.63;4987447;28;20201;-67
2021/11/22 07:33:30;;;;;;;19.70;11.60;;;;;;;6.79;75.15;96736.91;5010497;28;20212;-66
2021/11/22 07:35:56;;;;;;;21.63;12.00;;;;;;;6.14;76.62;96740.09;4994185;28;20180;-65
2021/11/22 07:38:21;;;;;;;23.90;12.97;;;;;;;6.75;75.44;96733.72;5011789;28;20219;-66
2021/11/22 07:40:47;;;;;;;24.43;12.50;;;;;;;6.69;75.18;96734.31;4982264;28;20179;-67
2021/11/22 07:43:15;;;;;;;18.43;10.77;;;;;;;6.91;74.98;96742.75;4993751;28;20200;-68
2021/11/22 07:45:41;;;;;;;21.93;11.80;;;;;;;7.30;73.90;96750.47;5011848;28;20555;-67
2021/11/22 07:48:08;;;;;;;20.67;12.10;;;;;;;7.13;74.05;96757.25;4994500;28;20427;-66
2021/11/22 07:50:34;;;;;;;20.17;11.60;;;;;;;6.50;76.84;96744.72;5011796;28;20219;-67
2021/11/22 07:52:59;;;;;;;17.00;11.03;;;;;;;7.18;74.72;96751.59;4994298;28;20444;-67
2021/11/22 07:55:25;;;;;;;17.90;11.40;;;;;;;6.80;75.65;96756.78;4995273;28;20181;-66
2021/11/22 07:57:53;;;;;;;21.40;12.37;;;;;;;6.77;76.44;96762.25;5012297;28;20204;-66
2021/11/22 08:00:20;;;;;;;17.57;11.30;;;;;;;7.01;75.23;96759.19;5011838;28;20519;-67
2021/11/22 08:02:46;;;;;;;17.93;11.70;;;;;;;6.51;76.67;96759.38;5003528;28;20451;-67
2021/11/22 08:05:12;;;;;;;16.13;10.80;;;;;;;7.01;75.58;96771.41;5011822;28;20577;-67
2021/11/22 08:07:41;;;;;;;18.63;11.37;;;;;;;6.68;76.86;96768.31;5011529;28;20605;-67
2021/11/22 08:12:47;;;;;;;19.13;11.67;;;;;;;7.26;74.96;96775.16;5012106;28;20478;-66
2021/11/22 08:15:13;;;;;;;15.83;10.30;;;;;;;7.43;74.53;96784.06;5011395;28;20422;-68
2021/11/22 08:17:42;;;;;;;18.43;10.83;;;;;;;7.46;74.48;96775.13;4992347;28;20184;-68
2021/11/22 08:20:18;;;;;;;15.90;10.97;;;;;;;6.74;75.77;96781.56;4993426;28;20492;-67
2021/11/22 08:22:45;;;;;;;16.37;10.00;;;;;;;7.13;75.33;96788.53;4997757;28;20439;-68
2021/11/22 08:25:12;;;;;;;15.27;10.37;;;;;;;7.14;75.63;96790.16;5000263;28;20450;-69
2021/11/22 08:27:39;;;;;;;14.00;9.90;;;;;;;7.04;76.09;96799.81;4978245;28;20427;-67
2021/11/22 08:30:16;;;;;;;14.37;9.93;;;;;;;7.15;75.70;96804.84;4993017;28;20432;-66
2021/11/22 08:32:43;;;;;;;14.60;9.97;;;;;;;6.65;77.21;96815.47;4993943;28;20836;-68
2021/11/22 08:35:09;;;;;;;12.80;8.87;;;;;;;7.15;75.54;96807.47;4983652;28;20520;-66
2021/11/22 08:37:37;;;;;;;16.57;9.90;;;;;;;7.23;76.12;96825.00;4995164;28;20411;-68
2021/11/22 08:40:05;;;;;;;20.63;11.27;;;;;;;7.10;76.36;96827.09;5001947;28;20478;-68
2021/11/22 08:42:31;;;;;;;18.23;10.60;;;;;;;7.55;74.51;96823.81;5013890;28;20443;-66
2021/11/22 08:44:57;;;;;;;22.20;11.10;;;;;;;7.71;74.53;96823.19;4996983;28;20458;-69
2021/11/22 08:47:23;;;;;;;15.40;10.40;;;;;;;7.36;74.75;96824.69;5008623;28;20189;-67
2021/11/22 08:49:49;;;;;;;16.63;11.40;;;;;;;7.58;74.86;96823.53;5014404;28;20428;-69
2021/11/22 08:52:15;;;;;;;19.17;11.97;;;;;;;7.33;75.48;96831.00;5004653;28;20664;-69
2021/11/22 08:54:40;;;;;;;16.37;11.00;;;;;;;7.60;75.43;96831.19;4997934;28;20528;-68
2021/11/22 08:57:08;;;;;;;21.53;11.90;;;;;;;7.76;74.63;96836.63;4990890;28;20417;-68
2021/11/22 08:59:34;;;;;;;16.47;10.43;;;;;;;7.81;74.56;96838.81;4988191;28;20297;-68
2021/11/22 09:01:59;;;;;;;25.40;11.33;;;;;;;7.59;74.84;96842.59;5015534;28;20534;-67
2021/11/22 09:04:26;;;;;;;17.87;11.30;;;;;;;7.39;75.66;96845.28;5015291;28;20918;-66
2021/11/22 09:06:52;;;;;;;17.03;10.40;;;;;;;7.28;76.30;96846.25;4998184;28;20191;-68
2021/11/22 09:09:18;;;;;;;16.50;11.00;;;;;;;7.56;76.17;96850.72;4970755;28;20909;-67
2021/11/22 09:11:46;;;;;;;15.70;10.47;;;;;;;6.91;78.21;96857.38;5016730;28;20231;-70
2021/11/22 09:14:12;;;;;;;17.33;11.10;;;;;;;7.06;78.21;96856.03;5015884;28;20423;-67
2021/11/22 09:16:39;;;;;;;16.57;11.10;;;;;;;7.42;77.17;96860.63;5022430;28;20446;-67
2021/11/22 09:19:05;;;;;;;16.20;10.57;;;;;;;7.56;75.88;96853.34;5008414;28;20424;-67
2021/11/22 09:21:32;;;;;;;19.17;10.93;;;;;;;7.73;76.01;96856.97;5018386;28;20507;-67
2021/11/22 09:24:00;;;;;;;16.73;10.80;;;;;;;7.96;74.82;96863.47;5016718;28;20419;-68
2021/11/22 09:26:26;;;;;;;18.63;12.47;;;;;;;7.95;74.11;96866.22;4991017;28;20428;-66
2021/11/22 09:28:51;;;;;;;18.27;11.63;;;;;;;7.79;75.32;96865.06;5018496;28;20442;-68
2021/11/22 09:31:17;;;;;;;18.40;10.73;;;;;;;7.91;74.82;96865.69;5019549;28;20231;-68
2021/11/22 09:33:44;;;;;;;15.77;11.67;;;;;;;7.77;74.94;96873.97;5023213;28;20211;-67
2021/11/22 09:36:10;;;;;;;18.43;11.80;;;;;;;7.67;75.13;96881.84;5017278;28;20708;-68
2021/11/22 09:38:36;;;;;;;16.83;11.80;;;;;;;7.64;75.27;96884.72;5017986;28;20510;-69
2021/11/22 09:41:01;;;;;;;17.60;11.80;;;;;;;7.70;75.60;96884.16;5011630;28;20426;-68
2021/11/22 09:43:28;;;;;;;14.20;10.53;;;;;;;7.67;75.26;96882.66;5014695;28;20201;-67
2021/11/22 09:45:54;;;;;;;20.87;11.97;;;;;;;7.73;75.36;96883.88;5015471;28;20205;-68
2021/11/22 09:48:19;;;;;;;18.70;12.03;;;;;;;7.53;75.80;96883.94;5013613;28;20419;-70
2021/11/22 09:50:45;;;;;;;20.77;12.00;;;;;;;7.68;75.49;96892.13;4988997;28;20250;-68
2021/11/22 09:53:11;;;;;;;17.37;11.10;;;;;;;7.49;76.04;96881.75;5014613;28;20199;-69
2021/11/22 09:55:39;;;;;;;23.10;13.63;;;;;;;7.65;75.53;96881.16;5003157;28;20279;-68
2021/11/22 09:58:06;;;;;;;18.60;11.87;;;;;;;6.89;77.85;96891.41;5009708;28;20427;-67
2021/11/22 10:00:34;;;;;;;19.60;12.07;;;;;;;7.32;77.13;96891.09;5011304;28;20922;-68
2021/11/22 10:03:00;;;;;;;18.67;12.37;;;;;;;7.68;75.46;96886.91;5008087;28;20502;-68
2021/11/22 10:05:31;;;;;;;23.93;11.83;;;;;;;7.71;75.88;96896.22;5011784;28;20455;-67
2021/11/22 10:08:05;;;;;;;19.40;11.80;;;;;;;7.76;75.52;96895.81;5007834;28;20191;-67
2021/11/22 10:10:40;;;;;;;18.37;12.10;;;;;;;7.94;75.25;96895.91;5006293;28;20561;-68
2021/11/22 10:13:41;;;;;;;20.30;11.47;;;;;;;7.46;76.42;96898.47;5013982;28;20442;-67
2021/11/22 10:16:12;;;;;;;23.50;12.50;;;;;;;7.29;77.21;96888.78;5004673;28;20419;-67
2021/11/22 10:18:39;;;;;;;21.17;12.63;;;;;;;7.76;76.16;96901.03;5013380;28;20420;-67
2021/11/22 10:21:08;;;;;;;17.23;11.30;;;;;;;7.92;75.39;96898.63;5012686;28;20412;-67
2021/11/22 10:23:37;;;;;;;26.87;13.50;;;;;;;8.00;75.33;96908.38;4987802;28;20443;-68
2021/11/22 10:26:03;;;;;;;19.20;11.77;;;;;;;8.15;74.50;96904.31;4995512;28;20457;-66
2021/11/22 10:28:38;;;;;;;17.33;11.43;;;;;;;7.89;75.29;96903.34;5011995;28;20434;-67
2021/11/22 10:31:07;;;;;;;17.30;12.10;;;;;;;7.46;75.88;96908.91;5013086;28;20505;-67
2021/11/22 10:33:36;;;;;;;17.47;11.43;;;;;;;7.37;76.46;96904.53;5013004;28;20899;-67
2021/11/22 10:36:07;;;;;;;22.90;11.50;;;;;;;7.59;77.03;96908.63;5004455;28;20423;-67
2021/11/22 10:38:36;;;;;;;21.37;12.00;;;;;;;7.73;76.98;96906.53;5001643;28;20425;-67
2021/11/22 10:41:07;;;;;;;21.50;12.20;;;;;;;7.74;75.77;96906.38;5007199;28;20439;-67
2021/11/22 10:43:35;;;;;;;20.50;11.63;;;;;;;7.72;76.04;96910.13;5008162;28;20435;-65
2021/11/22 10:46:05;;;;;;;17.13;9.83;;;;;;;7.82;76.01;96914.31;5012734;28;20903;-66
2021/11/22 10:48:31;;;;;;;16.23;11.70;;;;;;;7.82;75.47;96910.91;5006110;28;20934;-67
2021/11/22 10:51:15;;;;;;;19.20;12.60;;;;;;;7.49;77.63;96915.66;5009520;28;20455;-67
2021/11/22 10:54:05;;;;;;;20.90;12.30;;;;;;;7.98;75.17;96915.50;5012972;28;20196;-68
2021/11/22 10:56:40;;;;;;;24.37;12.07;;;;;;;8.38;74.76;96919.59;4995123;28;20981;-68
2021/11/22 10:59:06;;;;;;;26.10;12.27;;;;;;;8.30;73.38;96915.09;4978395;28;20509;-68
2021/11/22 11:01:34;;;;;;;19.43;11.33;;;;;;;8.43;73.50;96917.38;5012253;28;20457;-67
2021/11/22 11:04:05;;;;;;;20.23;11.90;;;;;;;8.26;74.16;96918.97;5012371;28;20424;-67
2021/11/22 11:07:05;;;;;;;27.27;10.90;;;;;;;8.10;74.11;96916.97;5012553;28;20518;-68
2021/11/22 11:09:36;;;;;;;20.13;11.10;;;;;;;8.13;73.86;96915.84;5006129;28;20436;-68
2021/11/22 11:12:12;;;;;;;15.80;10.77;;;;;;;8.19;74.08;96914.50;5012359;28;20806;-68
2021/11/22 11:14:45;;;;;;;14.20;10.90;;;;;;;7.30;76.24;96919.91;5012679;28;20493;-67
2021/11/22 11:17:24;;;;;;;16.80;10.83;;;;;;;7.81;75.48;96922.31;5011307;28;20419;-67
2021/11/22 11:19:56;;;;;;;20.13;10.43;;;;;;;7.85;75.58;96918.44;4986691;28;20895;-67
2021/11/22 11:22:27;;;;;;;19.83;11.10;;;;;;;7.21;77.39;96925.97;5008133;28;20887;-68
2021/11/22 11:24:53;;;;;;;20.40;11.73;;;;;;;7.42;77.35;96918.00;4995265;28;20473;-67